Terminal Aerodrome Forecast
Issued by NWS

Home | Current Version | Previous Version | Text Only | Print | Product List | Glossary On
Versions: 1 2 3 4 5 6 7 8 9 10 11 12 13 14 15 16 17 18 19 20 21 22 23 24 25 26 27 28 29 30 31 32 33 34 35 36 37 38 39 40 41
000
FTAK31 PAFA 290007 AAA
TAFASC
TAF AMD
PASC 290007Z 2900/2924 32015KT P6SM VCSH BKN010 OVC012
     FM290500 30012KT 4SM -SHRASN BR OVC005
     FM291400 30005KT 4SM -SHSN BR OVC007
     FM292300 27008KT P6SM -SHSN FEW007 OVC015=

USA.gov is the U.S. government's official web portal to all federal, state and local government web resources and services.